Time;durP1;ratioP1;P1;durP2;ratioP2;P2;SDS_P1;SDS_P2;PMS_P1;PMS_P2;Temp;Humidity;BMP_temperature;BMP_pressure;BME280_temperature;BME280_humidity;BME280_pressure;Samples;Min_cycle;Max_cycle;Signal;HPM_P1;HPM_P2
2024/01/06 01:52:40;;;;;;;21.85;15.90;;;;;;;;;;6308201;22;20023;-88
2024/01/06 01:55:06;;;;;;;21.20;15.00;;;;;;;;;;6293405;22;20071;-88
2024/01/06 01:57:32;;;;;;;20.30;15.02;;;;;;;;;;6242325;22;20094;-88
2024/01/06 02:00:01;;;;;;;22.23;14.85;;;;;;;;;;6296703;22;20042;-88
2024/01/06 02:02:28;;;;;;;22.23;15.40;;;;;;;;;;6244757;22;20097;-88
2024/01/06 02:04:55;;;;;;;19.55;14.30;;;;;;;;;;6293135;22;20119;-87
2024/01/06 02:07:21;;;;;;;18.95;13.70;;;;;;;;;;6293276;22;20447;-88
2024/01/06 02:09:47;;;;;;;18.02;13.25;;;;;;;;;;6242022;22;20011;-87
2024/01/06 02:12:13;;;;;;;18.02;13.73;;;;;;;;;;6263613;22;20021;-88
2024/01/06 02:14:39;;;;;;;20.67;13.73;;;;;;;;;;6320096;22;20029;-88
2024/01/06 02:17:05;;;;;;;19.48;14.13;;;;;;;;;;6261850;22;20029;-88
2024/01/06 02:19:31;;;;;;;16.40;12.02;;;;;;;;;;6261057;22;20011;-88
2024/01/06 02:22:00;;;;;;;14.75;10.65;;;;;;;;;;6234787;22;20019;-87
2024/01/06 02:24:26;;;;;;;;;;;;;;;;;;6236464;22;20019;-88
2024/01/06 02:26:52;;;;;;;15.68;11.77;;;;;;;;;;6236261;22;19991;-87
2024/01/06 02:29:18;;;;;;;16.05;11.65;;;;;;;;;;6233540;22;20015;-87
2024/01/06 02:31:44;;;;;;;16.90;12.40;;;;;;;;;;6261929;22;20064;-88
2024/01/06 02:34:10;;;;;;;19.23;13.07;;;;;;;;;;6286659;22;20015;-88
2024/01/06 02:36:36;;;;;;;17.17;12.38;;;;;;;;;;6236142;22;20333;-87
2024/01/06 02:39:02;;;;;;;18.88;12.77;;;;;;;;;;6258424;22;20015;-87
2024/01/06 02:41:28;;;;;;;20.45;14.35;;;;;;;;;;6261948;22;20019;-88
2024/01/06 02:43:56;;;;;;;18.20;12.90;;;;;;;;;;6235591;22;20382;-88
2024/01/06 02:46:22;;;;;;;22.87;15.70;;;;;;;;;;6259308;22;20026;-87
2024/01/06 02:48:48;;;;;;;22.40;15.52;;;;;;;;;;6236493;22;20077;-87
2024/01/06 02:51:14;;;;;;;23.83;15.30;;;;;;;;;;6256488;22;20053;-87
2024/01/06 02:53:40;;;;;;;23.60;15.50;;;;;;;;;;6236233;22;20023;-87
2024/01/06 02:56:10;;;;;;;25.52;15.45;;;;;;;;;;6232082;22;20096;-87
2024/01/06 02:58:36;;;;;;;26.90;16.77;;;;;;;;;;6237588;22;20033;-88
2024/01/06 03:01:02;;;;;;;23.95;15.73;;;;;;;;;;6259465;22;20015;-87
2024/01/06 03:03:28;;;;;;;24.27;14.80;;;;;;;;;;6241003;22;20414;-88
2024/01/06 03:05:55;;;;;;;22.75;15.10;;;;;;;;;;6261669;22;20097;-88
2024/01/06 03:08:22;;;;;;;24.25;15.68;;;;;;;;;;6232501;22;20022;-88
2024/01/06 03:10:48;;;;;;;22.67;15.10;;;;;;;;;;6237705;22;20015;-88
2024/01/06 03:13:14;;;;;;;22.92;14.35;;;;;;;;;;6233950;22;20775;-87
2024/01/06 03:15:40;;;;;;;21.98;13.68;;;;;;;;;;6261905;22;20019;-88
2024/01/06 03:18:06;;;;;;;20.42;14.15;;;;;;;;;;6258242;22;20094;-87
2024/01/06 03:20:32;;;;;;;20.55;13.73;;;;;;;;;;6235687;22;20015;-87
2024/01/06 03:22:58;;;;;;;21.77;13.75;;;;;;;;;;6259038;22;20026;-87
2024/01/06 03:25:24;;;;;;;22.73;13.93;;;;;;;;;;6233995;22;20430;-87
2024/01/06 03:27:50;;;;;;;19.27;13.23;;;;;;;;;;6236627;22;20045;-88
2024/01/06 03:30:16;;;;;;;21.52;14.15;;;;;;;;;;6234201;22;20622;-87
2024/01/06 03:32:42;;;;;;;20.15;15.00;;;;;;;;;;6237858;22;20019;-87
2024/01/06 03:35:08;;;;;;;22.50;15.23;;;;;;;;;;6285910;22;20344;-87
2024/01/06 03:37:37;;;;;;;22.88;14.25;;;;;;;;;;6261983;22;20015;-87
2024/01/06 03:40:03;;;;;;;;;;;;;;;;;;6233914;22;20034;-87
2024/01/06 03:42:29;;;;;;;19.73;13.27;;;;;;;;;;6261666;22;19915;-87
2024/01/06 03:44:55;;;;;;;17.48;12.65;;;;;;;;;;6261517;22;20064;-87
2024/01/06 03:47:21;;;;;;;21.27;13.93;;;;;;;;;;6233565;22;20051;-87
2024/01/06 03:49:47;;;;;;;18.83;12.82;;;;;;;;;;6263058;22;20012;-87
2024/01/06 03:52:13;;;;;;;20.58;13.98;;;;;;;;;;6263049;22;20026;-87
2024/01/06 03:54:39;;;;;;;18.52;12.80;;;;;;;;;;6264334;22;20027;-87
2024/01/06 03:57:06;;;;;;;19.40;13.65;;;;;;;;;;6289581;22;20030;-87
2024/01/06 03:59:32;;;;;;;18.20;12.85;;;;;;;;;;6264913;22;20019;-87
2024/01/06 04:01:58;;;;;;;19.17;12.63;;;;;;;;;;6262879;22;20025;-88
2024/01/06 04:04:24;;;;;;;19.98;12.65;;;;;;;;;;6264187;22;20416;-88
2024/01/06 04:06:50;;;;;;;17.92;12.70;;;;;;;;;;6264196;22;20015;-87
2024/01/06 04:09:16;;;;;;;19.13;13.07;;;;;;;;;;6239197;22;20022;-87
2024/01/06 04:11:42;;;;;;;18.92;14.05;;;;;;;;;;6241915;22;20014;-88
2024/01/06 04:14:08;;;;;;;17.25;12.93;;;;;;;;;;6264692;22;20019;-88
2024/01/06 04:16:34;;;;;;;20.60;13.35;;;;;;;;;;6269324;22;20022;-88
2024/01/06 04:19:00;;;;;;;19.20;13.77;;;;;;;;;;6265768;22;20062;-87
2024/01/06 04:21:26;;;;;;;19.50;13.90;;;;;;;;;;6264563;22;20397;-87
2024/01/06 04:23:52;;;;;;;19.38;13.13;;;;;;;;;;6262183;22;20023;-87
2024/01/06 04:26:18;;;;;;;19.42;13.18;;;;;;;;;;6236079;22;20800;-87
2024/01/06 04:28:44;;;;;;;16.27;12.57;;;;;;;;;;6264313;22;20016;-87
2024/01/06 04:31:10;;;;;;;19.33;13.10;;;;;;;;;;6234764;22;20443;-88
2024/01/06 04:33:36;;;;;;;18.95;12.82;;;;;;;;;;6261669;22;20026;-87
2024/01/06 04:36:02;;;;;;;19.92;13.18;;;;;;;;;;6261360;22;20088;-86
2024/01/06 04:38:28;;;;;;;17.10;12.80;;;;;;;;;;6262866;22;20068;-87
2024/01/06 04:40:54;;;;;;;16.27;11.68;;;;;;;;;;6263072;22;20717;-87
2024/01/06 04:43:20;;;;;;;20.85;12.68;;;;;;;;;;6261066;22;20061;-87
2024/01/06 04:45:46;;;;;;;18.13;12.10;;;;;;;;;;6237833;22;20011;-87
2024/01/06 04:48:12;;;;;;;18.20;11.82;;;;;;;;;;6288397;22;20452;-87
2024/01/06 04:50:38;;;;;;;18.40;11.55;;;;;;;;;;6259543;22;20016;-87
2024/01/06 04:53:04;;;;;;;17.45;11.63;;;;;;;;;;6259407;22;20034;-88
2024/01/06 04:55:30;;;;;;;19.05;12.27;;;;;;;;;;6264281;22;20026;-87
2024/01/06 04:57:56;;;;;;;18.52;12.43;;;;;;;;;;6212146;22;20512;-87
2024/01/06 05:00:22;;;;;;;17.92;12.23;;;;;;;;;;6209629;22;20723;-87
2024/01/06 05:02:48;;;;;;;15.63;11.68;;;;;;;;;;6237072;22;20467;-87
2024/01/06 05:05:14;;;;;;;16.67;12.00;;;;;;;;;;6236444;22;20015;-87
2024/01/06 05:07:40;;;;;;;18.40;12.77;;;;;;;;;;6239149;22;20011;-87
2024/01/06 05:10:07;;;;;;;16.83;11.80;;;;;;;;;;6259555;22;20082;-87
2024/01/06 05:12:33;;;;;;;18.02;11.98;;;;;;;;;;6211507;22;20034;-87
2024/01/06 05:14:59;;;;;;;17.92;11.38;;;;;;;;;;6235130;22;20147;-87
2024/01/06 05:17:25;;;;;;;18.38;12.20;;;;;;;;;;6236049;22;20086;-88
2024/01/06 05:19:51;;;;;;;20.60;13.18;;;;;;;;;;6236530;22;20553;-88
2024/01/06 05:22:17;;;;;;;16.98;12.45;;;;;;;;;;6234880;22;20007;-87
2024/01/06 05:24:43;;;;;;;17.35;12.00;;;;;;;;;;6261334;22;20027;-87
2024/01/06 05:27:09;;;;;;;19.90;12.88;;;;;;;;;;6234813;22;20011;-87
2024/01/06 05:29:35;;;;;;;18.80;12.90;;;;;;;;;;6211257;22;20080;-87
2024/01/06 05:32:01;;;;;;;16.88;12.52;;;;;;;;;;6260477;22;20309;-87
2024/01/06 05:34:27;;;;;;;18.63;12.45;;;;;;;;;;6290217;22;20019;-87
2024/01/06 05:36:53;;;;;;;17.05;11.90;;;;;;;;;;6238303;22;20056;-86
2024/01/06 05:39:19;;;;;;;18.85;12.75;;;;;;;;;;6261103;22;20170;-87
2024/01/06 05:41:46;;;;;;;15.27;10.98;;;;;;;;;;6263647;22;20023;-86
2024/01/06 05:44:12;;;;;;;15.32;10.82;;;;;;;;;;6261449;22;20019;-86
2024/01/06 05:46:38;;;;;;;16.98;11.43;;;;;;;;;;6238855;22;20313;-86
2024/01/06 05:49:04;;;;;;;17.75;11.55;;;;;;;;;;6288812;22;20026;-86
2024/01/06 05:51:30;;;;;;;17.30;12.05;;;;;;;;;;6212408;22;20092;-87
2024/01/06 05:53:56;;;;;;;17.88;12.38;;;;;;;;;;6262112;22;20045;-86
2024/01/06 05:56:26;;;;;;;18.88;11.40;;;;;;;;;;6260102;22;20448;-87
2024/01/06 05:58:52;;;;;;;15.90;11.60;;;;;;;;;;6213535;22;20019;-86
2024/01/06 06:01:19;;;;;;;17.90;12.20;;;;;;;;;;6232986;22;20019;-86
2024/01/06 06:03:45;;;;;;;19.10;12.88;;;;;;;;;;6236104;22;20146;-87
2024/01/06 06:06:11;;;;;;;16.73;12.35;;;;;;;;;;6234786;22;20037;-87
2024/01/06 06:08:37;;;;;;;16.80;11.43;;;;;;;;;;6263774;22;20388;-86
2024/01/06 06:11:10;;;;;;;16.27;11.82;;;;;;;;;;6209633;22;20023;-86
2024/01/06 06:13:37;;;;;;;17.00;11.70;;;;;;;;;;6259119;22;20444;-86
2024/01/06 06:16:03;;;;;;;15.30;11.50;;;;;;;;;;6258629;22;20023;-86
2024/01/06 06:18:29;;;;;;;17.48;11.88;;;;;;;;;;6236126;22;20023;-86
2024/01/06 06:20:55;;;;;;;17.90;13.00;;;;;;;;;;6234553;22;20096;-86
2024/01/06 06:23:21;;;;;;;18.20;12.10;;;;;;;;;;6234297;22;20448;-86
2024/01/06 06:25:47;;;;;;;19.17;13.05;;;;;;;;;;6292474;22;20022;-86
2024/01/06 06:28:13;;;;;;;16.75;12.23;;;;;;;;;;6234756;22;20074;-86
2024/01/06 06:30:39;;;;;;;16.30;11.57;;;;;;;;;;6290178;22;20382;-87
2024/01/06 06:33:05;;;;;;;17.35;11.93;;;;;;;;;;6209115;22;20023;-87
2024/01/06 06:35:31;;;;;;;18.15;13.23;;;;;;;;;;6234793;22;20072;-86
2024/01/06 06:37:57;;;;;;;15.18;11.75;;;;;;;;;;6289662;22;20116;-86
2024/01/06 06:40:23;;;;;;;19.40;12.15;;;;;;;;;;6234626;22;20141;-86
2024/01/06 06:42:49;;;;;;;15.98;11.95;;;;;;;;;;6235700;22;20067;-87
2024/01/06 06:45:15;;;;;;;15.43;10.77;;;;;;;;;;6234165;22;20399;-86
2024/01/06 06:47:41;;;;;;;15.02;11.32;;;;;;;;;;6261250;22;20336;-86
2024/01/06 06:50:08;;;;;;;14.88;11.63;;;;;;;;;;6231000;22;20092;-86
2024/01/06 07:32:02;;;;;;;16.15;12.00;;;;;;;;;;6257857;22;20080;-87
2024/01/06 07:34:28;;;;;;;15.07;11.15;;;;;;;;;;6295590;22;20071;-87
2024/01/06 07:36:54;;;;;;;16.05;12.45;;;;;;;;;;6321086;22;20011;-86
2024/01/06 07:39:20;;;;;;;15.95;11.65;;;;;;;;;;6291197;22;21054;-87
2024/01/06 07:41:46;;;;;;;15.88;11.68;;;;;;;;;;6294501;22;20022;-86
2024/01/06 07:44:12;;;;;;;14.60;11.43;;;;;;;;;;6293154;22;20026;-87
2024/01/06 07:46:42;;;;;;;15.18;11.38;;;;;;;;;;6298425;22;20344;-87
2024/01/06 07:49:08;;;;;;;13.93;10.80;;;;;;;;;;6265976;22;20392;-87
2024/01/06 07:51:34;;;;;;;15.05;11.07;;;;;;;;;;6267706;22;20083;-86
2024/01/06 07:54:01;;;;;;;14.35;11.20;;;;;;;;;;6241657;22;20019;-86
2024/01/06 07:56:27;;;;;;;15.18;11.27;;;;;;;;;;6269409;22;20018;-89
2024/01/06 07:58:53;;;;;;;15.13;11.25;;;;;;;;;;6270342;22;20580;-87
2024/01/06 08:01:19;;;;;;;16.27;11.18;;;;;;;;;;6265737;22;20023;-88
2024/01/06 08:03:45;;;;;;;13.85;11.10;;;;;;;;;;6294262;22;20019;-87
2024/01/06 08:06:11;;;;;;;15.45;11.40;;;;;;;;;;6291053;22;20014;-87
2024/01/06 08:08:37;;;;;;;14.45;10.38;;;;;;;;;;6269684;22;20075;-87
2024/01/06 08:11:03;;;;;;;13.07;10.80;;;;;;;;;;6291613;22;20767;-88
2024/01/06 08:13:29;;;;;;;12.95;10.18;;;;;;;;;;6268851;22;20497;-88
2024/01/06 08:15:55;;;;;;;15.35;10.90;;;;;;;;;;6293921;22;20054;-88
2024/01/06 08:22:34;;;;;;;13.00;10.38;;;;;;;;;;6176007;22;20019;-88
2024/01/06 08:25:30;;;;;;;13.77;10.38;;;;;;;;;;6257340;22;20090;-88
2024/01/06 08:46:03;;;;;;;14.68;11.13;;;;;;;;;;6017650;23;20559;-88
2024/01/06 08:52:42;;;;;;;16.02;11.80;;;;;;;;;;6015925;23;20027;-88
2024/01/06 08:56:06;;;;;;;16.52;12.07;;;;;;;;;;5935322;24;20024;-88
2024/01/06 09:03:03;;;;;;;17.05;12.48;;;;;;;;;;6003693;23;20035;-88
2024/01/06 09:05:44;;;;;;;16.42;12.10;;;;;;;;;;5905826;24;20116;-89
2024/01/06 09:08:33;;;;;;;16.33;11.50;;;;;;;;;;5908713;24;20012;-88
2024/01/06 09:12:04;;;;;;;15.25;11.85;;;;;;;;;;6043084;23;20642;-88
2024/01/06 09:15:23;;;;;;;;;;;;;;;;;;;;;
2024/01/06 09:22:20;;;;;;;15.80;11.65;;;;;;;;;;5947809;24;20129;-87
2024/01/06 09:25:48;;;;;;;15.75;11.38;;;;;;;;;;5931963;24;20095;-88
2024/01/06 09:29:07;;;;;;;17.08;11.98;;;;;;;;;;5855555;24;20032;-88
2024/01/06 09:32:34;;;;;;;;;;;;;;;;;;;;;
2024/01/06 09:35:46;;;;;;;;;;;;;;;;;;;;;
2024/01/06 09:46:18;;;;;;;;;;;;;;;;;;;;;
2024/01/06 09:52:54;;;;;;;;;;;;;;;;;;;;;
2024/01/06 09:59:19;;;;;;;;;;;;;;;;;;;;;
2024/01/06 10:06:09;;;;;;;18.65;13.82;;;;;;;;;;6048958;23;20097;-88
2024/01/06 23:04:34;;;;;;;19.55;14.30;;;;;;;;;;6306574;22;20059;-88
2024/01/06 23:07:05;;;;;;;19.90;13.30;;;;;;;;;;6276042;22;20019;-88
2024/01/06 23:09:31;;;;;;;;;;;;;;;;;;6275370;22;20086;-88
2024/01/06 23:11:58;;;;;;;17.90;12.77;;;;;;;;;;6274492;22;19938;-88
2024/01/06 23:14:27;;;;;;;19.73;13.23;;;;;;;;;;6249763;22;20402;-87
2024/01/06 23:16:57;;;;;;;18.35;12.48;;;;;;;;;;6273674;22;20686;-88
2024/01/06 23:19:26;;;;;;;16.38;12.32;;;;;;;;;;6246942;22;20594;-87
2024/01/06 23:21:55;;;;;;;17.45;12.30;;;;;;;;;;6269207;22;20015;-87
2024/01/06 23:24:23;;;;;;;18.67;12.13;;;;;;;;;;6243927;22;20644;-87
2024/01/06 23:26:51;;;;;;;16.63;11.80;;;;;;;;;;6240590;22;20608;-87
2024/01/06 23:29:23;;;;;;;17.67;12.60;;;;;;;;;;6272186;22;20053;-88
2024/01/06 23:31:52;;;;;;;17.52;12.50;;;;;;;;;;6241153;22;20322;-87
2024/01/06 23:34:26;;;;;;;16.55;11.65;;;;;;;;;;6243402;22;20030;-88
2024/01/06 23:36:53;;;;;;;17.05;11.05;;;;;;;;;;6219247;22;20019;-87
2024/01/06 23:39:19;;;;;;;15.18;11.35;;;;;;;;;;6207375;23;20106;-88
2024/01/06 23:41:46;;;;;;;15.73;11.25;;;;;;;;;;6229422;23;20023;-87
2024/01/06 23:44:14;;;;;;;14.00;10.90;;;;;;;;;;6231323;23;20024;-87
2024/01/06 23:46:43;;;;;;;15.43;11.10;;;;;;;;;;6203807;23;20020;-87
2024/01/06 23:49:12;;;;;;;13.52;10.45;;;;;;;;;;6180245;23;20073;-87
2024/01/06 23:51:45;;;;;;;14.18;9.88;;;;;;;;;;6203008;23;20019;-87
2024/01/06 23:54:11;;;;;;;12.65;9.98;;;;;;;;;;6205998;23;20020;-88
2024/01/06 23:56:38;;;;;;;12.95;9.90;;;;;;;;;;6202495;23;20123;-87
2024/01/06 23:59:06;;;;;;;13.85;10.07;;;;;;;;;;6204397;23;20030;-88
